createdAt,value
2023-06-16T00:01:10.507Z,99.90
2023-06-16T00:03:37.460Z,99.90
2023-06-16T00:06:13.727Z,99.90
2023-06-16T00:08:53.114Z,99.90
2023-06-16T00:11:20.037Z,99.90
2023-06-16T00:13:47.865Z,99.90
2023-06-16T00:16:15.565Z,99.90
2023-06-16T00:18:45.053Z,99.90
2023-06-16T00:21:15.191Z,99.90
2023-06-16T00:23:42.255Z,99.90
2023-06-16T00:26:09.133Z,99.90
2023-06-16T00:28:37.468Z,99.90
2023-06-16T00:31:04.211Z,99.90
2023-06-16T00:33:31.081Z,99.90
2023-06-16T00:35:57.859Z,99.90
2023-06-16T00:38:25.000Z,99.90
2023-06-16T00:40:52.289Z,99.90
2023-06-16T00:43:19.087Z,99.90
2023-06-16T00:45:46.039Z,99.90
2023-06-16T00:48:13.624Z,99.90
2023-06-16T00:50:40.921Z,99.90
2023-06-16T00:53:07.715Z,99.90
2023-06-16T00:55:34.825Z,99.90
2023-06-16T00:58:01.808Z,99.90
2023-06-16T01:00:29.645Z,99.90
2023-06-16T01:02:57.014Z,99.90
2023-06-16T01:05:25.714Z,99.90
2023-06-16T01:08:01.069Z,99.90
2023-06-16T01:10:55.862Z,99.90
2023-06-16T01:13:26.919Z,99.90
2023-06-16T01:15:57.018Z,99.90
2023-06-16T01:18:26.990Z,99.90
2023-06-16T01:21:32.387Z,99.90
2023-06-16T01:24:16.049Z,99.90
2023-06-16T01:26:46.461Z,99.90
2023-06-16T01:29:15.052Z,99.90
2023-06-16T01:31:43.425Z,99.90
2023-06-16T01:34:12.153Z,99.90
2023-06-16T01:36:41.573Z,99.90
2023-06-16T01:39:10.551Z,99.90
2023-06-16T01:41:38.200Z,99.90
2023-06-16T01:44:06.365Z,99.90
2023-06-16T01:46:34.218Z,99.90
2023-06-16T01:49:01.876Z,99.90
2023-06-16T01:51:29.956Z,99.90
2023-06-16T01:53:57.632Z,99.90
2023-06-16T01:56:24.497Z,99.90
2023-06-16T01:58:51.458Z,99.90
2023-06-16T02:01:26.649Z,99.90
2023-06-16T02:04:10.869Z,99.90
2023-06-16T02:06:50.571Z,99.90
2023-06-16T02:09:19.310Z,99.90
2023-06-16T02:11:47.632Z,99.90
2023-06-16T02:14:14.396Z,99.90
2023-06-16T02:16:43.698Z,99.90
2023-06-16T02:19:12.963Z,99.90
2023-06-16T02:21:42.178Z,99.90
2023-06-16T02:24:09.796Z,99.90
2023-06-16T02:26:38.237Z,99.90
2023-06-16T02:29:05.117Z,99.90
2023-06-16T02:31:32.618Z,99.90
2023-06-16T02:33:59.633Z,99.90
2023-06-16T02:36:28.727Z,99.90
2023-06-16T02:38:56.485Z,99.90
2023-06-16T02:41:23.818Z,99.90
2023-06-16T02:43:50.707Z,99.90
2023-06-16T02:46:17.489Z,99.90
2023-06-16T02:48:44.750Z,99.90
2023-06-16T02:51:12.022Z,99.90
2023-06-16T02:53:40.247Z,99.90
2023-06-16T02:56:08.206Z,99.90
2023-06-16T02:58:36.944Z,99.90
2023-06-16T03:01:05.217Z,99.90
2023-06-16T03:03:48.268Z,99.90
2023-06-16T03:06:25.581Z,99.90
2023-06-16T03:08:54.638Z,99.90
2023-06-16T03:11:21.506Z,99.90
2023-06-16T03:13:54.345Z,99.90
2023-06-16T03:16:24.282Z,99.90
2023-06-16T03:18:52.170Z,99.90
2023-06-16T03:21:19.881Z,99.90
2023-06-16T03:23:49.317Z,99.90
2023-06-16T03:26:16.186Z,99.90
2023-06-16T03:28:59.286Z,99.90
2023-06-16T03:31:27.916Z,99.90
2023-06-16T03:33:56.816Z,99.90
2023-06-16T03:36:28.129Z,99.90
2023-06-16T03:38:55.132Z,99.90
2023-06-16T03:41:22.009Z,99.90
2023-06-16T03:43:49.072Z,99.90
2023-06-16T03:46:17.613Z,99.90
2023-06-16T03:48:45.788Z,99.90
2023-06-16T03:51:12.731Z,99.90
2023-06-16T03:53:39.753Z,99.90
2023-06-16T03:56:06.897Z,99.90
2023-06-16T03:58:33.906Z,99.90
2023-06-16T04:01:01.059Z,99.90
2023-06-16T04:03:27.942Z,99.90
2023-06-16T04:05:56.071Z,99.90
2023-06-16T04:08:22.829Z,99.90
2023-06-16T04:10:49.898Z,99.90
2023-06-16T04:13:17.856Z,99.90
2023-06-16T04:15:47.266Z,99.90
2023-06-16T04:18:16.695Z,99.90
2023-06-16T04:20:43.604Z,99.90
2023-06-16T04:23:10.902Z,99.90
2023-06-16T04:25:39.219Z,99.90
2023-06-16T04:28:07.294Z,99.90
2023-06-16T04:30:34.622Z,99.90
2023-06-16T04:33:03.981Z,99.90
2023-06-16T04:35:35.273Z,99.90
2023-06-16T04:38:04.175Z,99.90
2023-06-16T04:40:33.242Z,99.90
2023-06-16T04:43:00.514Z,99.90
2023-06-16T04:45:28.534Z,99.90
2023-06-16T04:47:55.673Z,99.90
2023-06-16T04:50:23.590Z,99.90
2023-06-16T04:52:51.460Z,99.90
2023-06-16T04:55:18.923Z,99.90
2023-06-16T04:57:46.376Z,99.90
2023-06-16T05:00:14.334Z,99.90
2023-06-16T05:02:42.776Z,99.90
2023-06-16T05:05:09.779Z,99.90
2023-06-16T05:07:38.056Z,99.90
2023-06-16T05:10:07.562Z,99.90
2023-06-16T05:12:34.474Z,99.90
2023-06-16T05:15:01.566Z,99.90
2023-06-16T05:17:28.668Z,99.90
2023-06-16T05:19:55.996Z,99.90
2023-06-16T05:22:26.570Z,99.90
2023-06-16T05:24:57.165Z,99.90
2023-06-16T05:27:25.415Z,99.90
2023-06-16T05:29:58.361Z,99.90
2023-06-16T05:32:27.667Z,99.90
2023-06-16T05:34:54.934Z,99.90
2023-06-16T05:37:23.522Z,99.90
2023-06-16T05:39:52.554Z,99.90
2023-06-16T05:42:21.185Z,99.90
2023-06-16T05:44:49.334Z,99.90
2023-06-16T05:47:17.089Z,99.90
2023-06-16T05:49:44.323Z,99.90
2023-06-16T05:52:12.029Z,99.90
2023-06-16T05:54:41.572Z,99.90
2023-06-16T05:57:12.250Z,99.90
2023-06-16T05:59:39.150Z,99.90
2023-06-16T06:02:06.775Z,99.90
2023-06-16T06:04:34.662Z,99.90
2023-06-16T06:07:06.865Z,99.90
2023-06-16T06:09:34.486Z,99.90
2023-06-16T06:12:01.683Z,99.90
2023-06-16T06:14:29.737Z,99.90
2023-06-16T06:16:56.808Z,99.90
2023-06-16T06:19:25.226Z,99.90
2023-06-16T06:21:53.932Z,99.90
2023-06-16T06:24:22.058Z,99.90
2023-06-16T06:26:49.318Z,99.90
2023-06-16T06:29:16.805Z,99.90
2023-06-16T06:31:43.675Z,99.70
2023-06-16T06:34:10.577Z,97.40
2023-06-16T06:36:37.806Z,98.80
2023-06-16T06:39:05.316Z,99.50
2023-06-16T06:41:32.335Z,98.60
2023-06-16T06:44:08.996Z,98.00
2023-06-16T06:46:43.716Z,96.70
2023-06-16T06:49:10.638Z,96.50
2023-06-16T06:51:37.530Z,96.30
2023-06-16T06:54:04.525Z,94.80
2023-06-16T06:56:31.488Z,95.90
2023-06-16T06:58:58.285Z,96.10
2023-06-16T07:01:25.511Z,95.50
2023-06-16T07:03:52.387Z,95.20
2023-06-16T07:06:19.399Z,94.70
2023-06-16T07:08:46.279Z,93.70
2023-06-16T07:11:13.004Z,92.60
2023-06-16T07:13:39.778Z,92.30
2023-06-16T07:16:06.608Z,92.20
2023-06-16T07:18:33.620Z,91.60
2023-06-16T07:21:00.466Z,90.70
2023-06-16T07:23:27.235Z,90.90
2023-06-16T07:25:55.492Z,90.00
2023-06-16T07:28:22.367Z,90.90
2023-06-16T07:30:49.238Z,89.70
2023-06-16T07:33:16.022Z,89.10
2023-06-16T07:35:45.777Z,89.30
2023-06-16T07:38:12.593Z,89.10
2023-06-16T07:40:39.496Z,88.80
2023-06-16T07:43:06.931Z,88.70
2023-06-16T07:45:34.515Z,88.20
2023-06-16T07:48:02.120Z,88.00
2023-06-16T07:50:29.220Z,86.60
2023-06-16T07:52:56.075Z,88.50
2023-06-16T07:55:22.930Z,86.30
2023-06-16T07:57:49.812Z,86.80
2023-06-16T08:00:19.695Z,85.30
2023-06-16T08:02:47.375Z,82.00
2023-06-16T08:05:17.588Z,82.00
2023-06-16T08:07:44.984Z,79.50
2023-06-16T08:10:14.775Z,79.20
2023-06-16T08:12:42.767Z,81.40
2023-06-16T08:15:10.017Z,79.80
2023-06-16T08:17:37.858Z,80.40
2023-06-16T08:20:08.564Z,79.70
2023-06-16T08:22:35.473Z,77.20
2023-06-16T08:25:03.419Z,75.90
2023-06-16T08:27:30.316Z,76.80
2023-06-16T08:29:57.249Z,76.70
2023-06-16T08:32:24.370Z,77.10
2023-06-16T08:34:51.237Z,73.50
2023-06-16T08:37:29.928Z,74.20
2023-06-16T08:39:58.318Z,74.40
2023-06-16T08:42:25.447Z,74.30
2023-06-16T08:44:56.460Z,72.10
2023-06-16T08:47:24.069Z,73.40
2023-06-16T08:49:53.596Z,74.20
2023-06-16T08:52:34.216Z,73.20
2023-06-16T08:55:15.482Z,72.30
2023-06-16T08:57:48.020Z,74.10
2023-06-16T09:00:16.324Z,73.60
2023-06-16T09:02:45.327Z,73.20
2023-06-16T09:05:13.109Z,72.90
2023-06-16T09:07:42.662Z,70.50
2023-06-16T09:10:10.093Z,71.30
2023-06-16T09:12:37.097Z,71.00
2023-06-16T09:15:11.567Z,69.40
2023-06-16T09:17:39.381Z,70.80
2023-06-16T09:20:09.579Z,68.30
2023-06-16T09:22:37.409Z,69.40
2023-06-16T09:25:09.032Z,68.20
2023-06-16T09:27:47.270Z,67.50
2023-06-16T09:30:15.950Z,68.00
2023-06-16T09:32:43.629Z,67.60
2023-06-16T09:35:19.573Z,68.40
2023-06-16T09:37:47.969Z,67.00
2023-06-16T09:40:15.911Z,65.70
2023-06-16T09:42:44.829Z,65.80
2023-06-16T09:45:16.890Z,64.60
2023-06-16T09:47:46.181Z,61.30
2023-06-16T09:50:14.757Z,63.20
2023-06-16T09:52:45.637Z,61.40
2023-06-16T09:55:14.008Z,60.00
2023-06-16T09:57:43.234Z,61.50
2023-06-16T10:00:17.582Z,62.80
2023-06-16T10:02:49.717Z,61.60
2023-06-16T10:05:19.618Z,60.60
2023-06-16T10:07:52.713Z,60.80
2023-06-16T10:10:30.398Z,60.00
2023-06-16T10:12:57.902Z,61.10
2023-06-16T10:15:30.574Z,61.10
2023-06-16T10:18:07.786Z,62.50
2023-06-16T10:20:38.636Z,61.30
2023-06-16T10:23:06.142Z,61.40
2023-06-16T10:25:34.574Z,61.00
2023-06-16T10:28:06.494Z,61.80
2023-06-16T10:30:36.794Z,61.90
2023-06-16T10:33:17.443Z,61.80
2023-06-16T10:35:55.599Z,61.70
2023-06-16T10:38:37.338Z,61.20
2023-06-16T10:41:04.614Z,59.90
2023-06-16T10:43:31.416Z,61.60
2023-06-16T10:46:18.324Z,60.50
2023-06-16T10:49:06.910Z,61.50
2023-06-16T10:51:48.987Z,62.40
2023-06-16T10:54:37.752Z,60.80
2023-06-16T10:57:13.358Z,62.20
2023-06-16T11:00:12.528Z,61.90
2023-06-16T11:02:50.009Z,62.50
2023-06-16T11:05:19.640Z,61.80
2023-06-16T11:07:59.269Z,63.30
2023-06-16T11:10:26.285Z,62.00
2023-06-16T11:12:53.083Z,62.00
2023-06-16T11:15:24.650Z,61.20
2023-06-16T11:17:53.247Z,60.50
2023-06-16T11:20:21.637Z,62.40
2023-06-16T11:22:50.903Z,60.80
2023-06-16T11:25:18.396Z,60.30
2023-06-16T11:27:45.559Z,61.90
2023-06-16T11:30:12.610Z,62.30
2023-06-16T11:32:41.821Z,62.50
2023-06-16T11:35:09.323Z,61.20
2023-06-16T11:37:58.067Z,61.40
2023-06-16T11:40:27.512Z,61.40
2023-06-16T11:42:58.272Z,61.10
2023-06-16T11:45:31.214Z,61.50
2023-06-16T11:48:00.193Z,61.50
2023-06-16T11:50:27.541Z,61.00
2023-06-16T11:52:54.851Z,61.40
2023-06-16T11:55:23.307Z,61.30
2023-06-16T11:57:50.200Z,60.00
2023-06-16T12:00:18.680Z,57.60
2023-06-16T12:02:51.575Z,58.10
2023-06-16T12:05:23.658Z,58.00
2023-06-16T12:07:51.212Z,59.30
2023-06-16T12:10:18.357Z,57.70
2023-06-16T12:12:46.773Z,56.90
2023-06-16T12:15:21.678Z,57.60
2023-06-16T12:17:49.169Z,58.80
2023-06-16T12:20:18.748Z,57.40
2023-06-16T12:22:46.219Z,57.70
2023-06-16T12:25:15.422Z,56.50
2023-06-16T12:27:53.205Z,57.10
2023-06-16T12:30:21.119Z,58.20
2023-06-16T12:32:48.670Z,58.20
2023-06-16T12:35:28.047Z,56.90
2023-06-16T12:37:59.483Z,58.20
2023-06-16T12:40:30.048Z,57.90
2023-06-16T12:42:56.855Z,57.00
2023-06-16T12:45:23.788Z,55.40
2023-06-16T12:47:50.785Z,56.90
2023-06-16T12:50:17.766Z,57.10
2023-06-16T12:52:44.770Z,58.20
2023-06-16T12:55:11.513Z,57.50
2023-06-16T12:57:38.238Z,56.60
2023-06-16T13:00:05.694Z,56.30
2023-06-16T13:02:32.535Z,57.50
2023-06-16T13:04:59.522Z,56.70
2023-06-16T13:07:26.388Z,57.40
2023-06-16T13:09:53.253Z,58.60
2023-06-16T13:12:22.334Z,57.50
2023-06-16T13:14:49.439Z,56.90
2023-06-16T13:17:17.358Z,57.20
2023-06-16T13:19:45.544Z,57.70
2023-06-16T13:22:14.223Z,56.80
2023-06-16T13:24:41.154Z,57.40
2023-06-16T13:27:08.093Z,56.70
2023-06-16T13:29:34.868Z,56.80
2023-06-16T13:32:01.643Z,56.30
2023-06-16T13:34:28.423Z,57.00
2023-06-16T13:36:55.217Z,57.00
2023-06-16T13:39:21.968Z,56.20
2023-06-16T13:41:48.831Z,56.40
2023-06-16T13:44:15.847Z,55.70
2023-06-16T13:46:42.775Z,57.60
2023-06-16T13:49:12.422Z,57.50
2023-06-16T13:51:42.505Z,57.60
2023-06-16T13:54:11.583Z,56.60
2023-06-16T13:56:38.391Z,55.90
2023-06-16T13:59:05.268Z,56.30
2023-06-16T14:01:32.286Z,56.20
2023-06-16T14:03:59.161Z,57.30
2023-06-16T14:06:25.959Z,55.60
2023-06-16T14:08:57.124Z,53.90
2023-06-16T14:11:24.306Z,54.00
2023-06-16T14:13:51.729Z,54.40
2023-06-16T14:16:18.510Z,55.40
2023-06-16T14:18:45.416Z,54.40
2023-06-16T14:21:12.224Z,54.90
2023-06-16T14:23:38.966Z,54.70
2023-06-16T14:26:05.787Z,53.00
2023-06-16T14:28:32.514Z,53.10
2023-06-16T14:30:59.942Z,53.60
2023-06-16T14:33:26.932Z,51.10
2023-06-16T14:35:53.828Z,51.50
2023-06-16T14:38:21.192Z,52.60
2023-06-16T14:40:48.082Z,52.70
2023-06-16T14:43:14.885Z,53.40
2023-06-16T14:45:41.636Z,52.90
2023-06-16T14:48:08.481Z,52.50
2023-06-16T14:50:35.528Z,52.90
2023-06-16T14:53:02.296Z,52.80
2023-06-16T14:55:29.110Z,50.70
2023-06-16T14:57:55.970Z,50.20
2023-06-16T15:00:22.793Z,49.70
2023-06-16T15:02:49.644Z,51.20
2023-06-16T15:05:18.719Z,50.10
2023-06-16T15:07:46.105Z,49.10
2023-06-16T15:10:12.919Z,49.60
2023-06-16T15:12:39.761Z,48.60
2023-06-16T15:15:07.095Z,49.70
2023-06-16T15:17:34.133Z,49.10
2023-06-16T15:20:01.301Z,49.60
2023-06-16T15:22:28.129Z,48.30
2023-06-16T15:24:54.935Z,48.70
2023-06-16T15:27:21.747Z,47.40
2023-06-16T15:29:48.498Z,46.40
2023-06-16T15:32:15.667Z,47.10
2023-06-16T15:34:42.468Z,47.60
2023-06-16T15:37:09.521Z,47.20
2023-06-16T15:39:37.528Z,46.30
2023-06-16T15:42:04.633Z,45.40
2023-06-16T15:44:31.513Z,45.60
2023-06-16T15:46:58.347Z,46.10
2023-06-16T15:49:25.487Z,45.50
2023-06-16T15:51:52.318Z,46.80
2023-06-16T15:54:19.071Z,46.70
2023-06-16T15:56:45.852Z,46.30
2023-06-16T15:59:12.614Z,45.50
2023-06-16T16:01:40.049Z,46.60
2023-06-16T16:04:09.370Z,45.30
2023-06-16T16:06:36.190Z,45.30
2023-06-16T16:09:03.196Z,46.10
2023-06-16T16:11:30.271Z,46.70
2023-06-16T16:13:57.258Z,47.00
2023-06-16T16:16:24.023Z,47.60
2023-06-16T16:18:51.377Z,47.60
2023-06-16T16:21:18.221Z,48.40
2023-06-16T16:23:45.051Z,49.00
2023-06-16T16:26:11.986Z,49.30
2023-06-16T16:28:40.422Z,49.30
2023-06-16T16:31:07.463Z,49.70
2023-06-16T16:33:34.760Z,50.10
2023-06-16T16:36:01.521Z,49.10
2023-06-16T16:38:30.254Z,50.40
2023-06-16T16:40:57.117Z,49.50
2023-06-16T16:43:23.967Z,50.40
2023-06-16T16:45:50.844Z,50.10
2023-06-16T16:48:17.575Z,49.80
2023-06-16T16:50:44.352Z,50.50
2023-06-16T16:53:11.280Z,50.70
2023-06-16T16:55:38.220Z,51.30
2023-06-16T16:58:05.434Z,51.00
2023-06-16T17:00:33.027Z,50.00
2023-06-16T17:02:59.880Z,50.00
2023-06-16T17:05:26.974Z,50.40
2023-06-16T17:07:53.751Z,50.20
2023-06-16T17:10:20.953Z,49.80
2023-06-16T17:12:48.041Z,49.40
2023-06-16T17:15:15.813Z,50.20
2023-06-16T17:17:42.684Z,50.20
2023-06-16T17:20:10.015Z,50.20
2023-06-16T17:22:36.923Z,50.80
2023-06-16T17:25:03.870Z,52.00
2023-06-16T17:27:38.526Z,52.30
2023-06-16T17:30:16.015Z,52.40
2023-06-16T17:32:42.908Z,53.30
2023-06-16T17:35:09.909Z,53.20
2023-06-16T17:37:36.744Z,53.50
2023-06-16T17:40:05.560Z,52.40
2023-06-16T17:42:33.039Z,53.10
2023-06-16T17:45:00.200Z,53.10
2023-06-16T17:47:27.590Z,53.40
2023-06-16T17:49:54.398Z,52.50
2023-06-16T17:52:21.202Z,53.20
2023-06-16T17:54:50.712Z,54.10
2023-06-16T17:57:17.572Z,53.80
2023-06-16T17:59:44.635Z,53.30
2023-06-16T18:02:11.765Z,54.00
2023-06-16T18:04:38.658Z,54.20
2023-06-16T18:07:05.540Z,54.10
2023-06-16T18:09:32.943Z,54.50
2023-06-16T18:12:00.165Z,54.70
2023-06-16T18:14:31.453Z,54.60
2023-06-16T18:16:58.590Z,54.20
2023-06-16T18:19:26.050Z,54.10
2023-06-16T18:21:52.836Z,54.10
2023-06-16T18:24:19.621Z,54.50
2023-06-16T18:26:46.473Z,54.60
2023-06-16T18:29:13.314Z,54.20
2023-06-16T18:31:40.120Z,54.90
2023-06-16T18:34:06.887Z,55.30
2023-06-16T18:36:33.633Z,55.90
2023-06-16T18:39:12.649Z,55.00
2023-06-16T18:41:39.833Z,55.10
2023-06-16T18:44:07.054Z,55.10
2023-06-16T18:46:33.942Z,54.60
2023-06-16T18:49:00.765Z,55.50
2023-06-16T18:51:29.590Z,55.80
2023-06-16T18:53:56.512Z,56.30
2023-06-16T18:56:23.359Z,56.50
2023-06-16T18:58:50.381Z,57.00
2023-06-16T19:01:17.257Z,57.50
2023-06-16T19:03:45.339Z,57.90
2023-06-16T19:06:12.368Z,58.90
2023-06-16T19:08:49.592Z,59.50
2023-06-16T19:11:17.480Z,60.00
2023-06-16T19:13:48.332Z,60.30
2023-06-16T19:16:16.473Z,60.80
2023-06-16T19:18:47.188Z,61.20
2023-06-16T19:21:14.164Z,61.40
2023-06-16T19:23:41.085Z,62.20
2023-06-16T19:26:10.826Z,62.40
2023-06-16T19:28:51.689Z,62.70
2023-06-16T19:31:20.373Z,63.30
2023-06-16T19:33:48.646Z,63.40
2023-06-16T19:36:15.490Z,64.00
2023-06-16T19:38:42.213Z,64.00
2023-06-16T19:41:09.181Z,64.60
2023-06-16T19:43:35.942Z,65.00
2023-06-16T19:46:02.918Z,65.50
2023-06-16T19:48:29.821Z,67.60
2023-06-16T19:50:57.226Z,69.90
2023-06-16T19:53:24.067Z,70.40
2023-06-16T19:55:51.326Z,71.00
2023-06-16T19:58:19.544Z,71.70
2023-06-16T20:00:46.576Z,72.30
2023-06-16T20:03:13.656Z,72.30
2023-06-16T20:05:40.614Z,72.80
2023-06-16T20:08:07.435Z,73.50
2023-06-16T20:10:34.458Z,75.30
2023-06-16T20:13:01.869Z,75.10
2023-06-16T20:15:28.627Z,75.40
2023-06-16T20:17:56.655Z,75.50
2023-06-16T20:20:25.550Z,76.20
2023-06-16T20:22:52.360Z,77.30
2023-06-16T20:25:19.282Z,76.70
2023-06-16T20:27:48.581Z,77.10
2023-06-16T20:30:15.733Z,77.50
2023-06-16T20:32:43.262Z,78.10
2023-06-16T20:35:10.577Z,78.20
2023-06-16T20:37:38.367Z,78.70
2023-06-16T20:40:10.672Z,78.70
2023-06-16T20:42:37.815Z,80.00
2023-06-16T20:45:07.236Z,80.20
2023-06-16T20:47:35.385Z,81.20
2023-06-16T20:50:05.179Z,81.80
2023-06-16T20:52:32.033Z,82.50
2023-06-16T20:54:58.835Z,82.90
2023-06-16T20:57:27.434Z,83.30
2023-06-16T20:59:54.369Z,83.90
2023-06-16T21:02:21.401Z,84.10
2023-06-16T21:04:49.257Z,84.00
2023-06-16T21:07:22.179Z,85.30
2023-06-16T21:09:48.983Z,85.60
2023-06-16T21:12:15.746Z,86.40
2023-06-16T21:14:42.520Z,86.60
2023-06-16T21:17:09.296Z,87.50
2023-06-16T21:19:46.846Z,88.40
2023-06-16T21:22:14.891Z,89.00
2023-06-16T21:24:41.740Z,90.00
2023-06-16T21:27:09.201Z,90.40
2023-06-16T21:29:36.078Z,90.60
2023-06-16T21:32:03.083Z,91.00
2023-06-16T21:34:29.849Z,91.20
2023-06-16T21:36:56.680Z,91.30
2023-06-16T21:39:24.262Z,91.30
2023-06-16T21:41:51.036Z,89.60
2023-06-16T21:44:17.828Z,88.20
2023-06-16T21:46:44.692Z,88.10
2023-06-16T21:49:11.586Z,89.60
2023-06-16T21:51:38.369Z,90.00
2023-06-16T21:54:05.834Z,92.10
2023-06-16T21:56:32.540Z,92.70
2023-06-16T21:58:59.289Z,93.10
2023-06-16T22:01:26.330Z,93.40
2023-06-16T22:03:53.170Z,94.10
2023-06-16T22:06:20.536Z,94.80
2023-06-16T22:08:47.307Z,94.90
2023-06-16T22:11:14.284Z,95.90
2023-06-16T22:13:41.592Z,96.20
2023-06-16T22:16:08.349Z,97.00
2023-06-16T22:18:35.329Z,97.60
2023-06-16T22:21:03.362Z,97.80
2023-06-16T22:23:31.109Z,98.80
2023-06-16T22:25:58.080Z,99.10
2023-06-16T22:28:25.125Z,99.30
2023-06-16T22:30:51.957Z,99.40
2023-06-16T22:33:18.865Z,99.90
2023-06-16T22:35:45.699Z,99.90
2023-06-16T22:38:12.418Z,99.90
2023-06-16T22:40:39.185Z,99.90
2023-06-16T22:43:06.067Z,99.90
2023-06-16T22:45:32.838Z,99.90
2023-06-16T22:48:00.347Z,99.90
2023-06-16T22:50:27.339Z,99.90
2023-06-16T22:52:54.159Z,99.90
2023-06-16T22:55:21.358Z,99.90
2023-06-16T22:57:48.191Z,99.90
2023-06-16T23:00:15.433Z,99.90
2023-06-16T23:02:42.295Z,99.90
2023-06-16T23:05:09.525Z,99.90
2023-06-16T23:07:36.766Z,99.90
2023-06-16T23:10:06.027Z,99.90
2023-06-16T23:12:32.912Z,99.90
2023-06-16T23:15:00.037Z,99.90
2023-06-16T23:17:26.977Z,99.90
2023-06-16T23:19:54.917Z,99.90
2023-06-16T23:22:21.742Z,99.90
2023-06-16T23:24:49.758Z,99.90
2023-06-16T23:27:20.437Z,99.90
2023-06-16T23:29:47.510Z,99.90
2023-06-16T23:32:14.330Z,99.90
2023-06-16T23:34:41.680Z,99.90
2023-06-16T23:37:08.534Z,99.90
2023-06-16T23:39:35.437Z,99.90
2023-06-16T23:42:02.199Z,99.90
2023-06-16T23:44:28.983Z,99.90
2023-06-16T23:46:55.793Z,99.90
2023-06-16T23:49:22.574Z,99.90
2023-06-16T23:51:49.344Z,99.90
2023-06-16T23:54:17.758Z,99.90
2023-06-16T23:56:44.628Z,99.90
2023-06-16T23:59:11.839Z,99.90
